createdAt,value
2017-12-31T16:34:29.491Z,79.06
2017-12-31T16:35:30.504Z,78.77
2017-12-31T16:37:24.095Z,79.53
2017-12-31T16:38:24.102Z,80.01
2017-12-31T16:40:18.276Z,79.53
2017-12-31T16:41:14.959Z,78.86
2017-12-31T16:43:11.178Z,78.96
2017-12-31T16:44:11.185Z,79.35
2017-12-31T16:46:03.855Z,78.77
2017-12-31T16:47:04.816Z,78.96
2017-12-31T16:48:57.402Z,79.06
2017-12-31T16:49:58.470Z,80.01
2017-12-31T16:51:50.964Z,79.06
2017-12-31T16:52:51.857Z,79.53
2017-12-31T16:54:45.519Z,79.72
2017-12-31T16:55:44.576Z,79.91
2017-12-31T16:57:39.585Z,79.06
2017-12-31T16:58:36.325Z,79.25
2017-12-31T17:00:32.520Z,79.44
2017-12-31T17:01:32.571Z,78.96
2017-12-31T17:03:25.227Z,78.86
2017-12-31T17:04:26.129Z,78.67
2017-12-31T17:06:19.624Z,79.06
2017-12-31T17:07:19.680Z,78.77
2017-12-31T17:09:12.338Z,79.82
2017-12-31T17:11:26.650Z,79.44
2017-12-31T17:12:26.688Z,79.06
2017-12-31T17:14:20.830Z,79.53
2017-12-31T17:15:20.211Z,79.15
2017-12-31T17:17:13.810Z,79.15
2017-12-31T17:18:13.771Z,79.19
2017-12-31T17:20:06.308Z,79.15
2017-12-31T17:21:07.373Z,79.38
2017-12-31T17:23:00.966Z,78.86
2017-12-31T17:24:00.893Z,78.67
2017-12-31T17:25:51.673Z,78.96
2017-12-31T17:26:54.493Z,78.96
2017-12-31T17:28:48.012Z,79.06
2017-12-31T17:29:48.088Z,79.25
2017-12-31T17:31:40.570Z,78.01
2017-12-31T17:32:41.582Z,78.10
2017-12-31T17:34:35.068Z,78.20
2017-12-31T17:35:35.141Z,78.20
2017-12-31T17:37:28.433Z,78.58
2017-12-31T17:39:42.145Z,78.10
2017-12-31T17:40:42.125Z,77.62
2017-12-31T17:42:34.763Z,78.39
2017-12-31T17:43:35.269Z,77.62
2017-12-31T17:45:28.353Z,77.82
2017-12-31T17:46:29.239Z,78.01
2017-12-31T17:48:21.869Z,77.91
2017-12-31T17:49:22.790Z,77.62
2017-12-31T17:51:15.763Z,78.01
2017-12-31T17:52:16.365Z,78.01
2017-12-31T17:54:09.938Z,77.91
2017-12-31T17:55:09.914Z,77.62
2017-12-31T17:57:02.589Z,77.53
2017-12-31T17:58:03.478Z,77.15
2017-12-31T17:59:56.197Z,76.10
2017-12-31T18:00:54.387Z,76.77
2017-12-31T18:02:49.516Z,77.44
2017-12-31T18:03:50.628Z,77.15
2017-12-31T18:05:43.291Z,76.29
2017-12-31T18:06:44.171Z,76.48
2017-12-31T18:08:37.726Z,76.86
2017-12-31T18:09:37.731Z,76.48
2017-12-31T18:11:30.926Z,76.10
2017-12-31T18:12:31.322Z,76.01
2017-12-31T18:14:21.986Z,76.64
2017-12-31T18:15:24.906Z,76.16
2017-12-31T18:17:17.534Z,76.25
2017-12-31T18:18:15.740Z,75.78
2017-12-31T18:20:10.843Z,75.68
2017-12-31T18:21:11.970Z,75.30
2017-12-31T18:23:05.588Z,75.78
2017-12-31T18:24:05.565Z,75.30
2017-12-31T18:25:58.240Z,74.54
2017-12-31T18:26:59.096Z,74.54
2017-12-31T18:28:52.663Z,74.44
2017-12-31T18:29:52.688Z,74.44
2017-12-31T18:31:45.295Z,73.87
2017-12-31T18:32:46.206Z,73.68
2017-12-31T18:34:39.818Z,73.68
2017-12-31T18:35:37.111Z,74.06
2017-12-31T18:37:32.440Z,73.68
2017-12-31T18:38:33.336Z,73.77
2017-12-31T18:40:26.898Z,73.11
2017-12-31T18:41:26.927Z,72.82
2017-12-31T18:43:18.173Z,73.01
2017-12-31T18:44:20.462Z,72.92
2017-12-31T18:46:14.004Z,72.92
2017-12-31T18:47:14.021Z,72.92
2017-12-31T18:49:06.701Z,72.44
2017-12-31T18:50:07.585Z,72.63
2017-12-31T18:52:01.162Z,72.25
2017-12-31T18:53:01.194Z,72.16
2017-12-31T18:54:53.543Z,71.58
2017-12-31T18:55:54.696Z,71.64
2017-12-31T18:57:48.145Z,71.20
2017-12-31T18:58:48.292Z,71.17
2017-12-31T19:00:39.025Z,71.45
2017-12-31T19:01:41.861Z,71.55
2017-12-31T19:03:35.387Z,70.88
2017-12-31T19:04:35.428Z,71.30
2017-12-31T19:06:28.155Z,70.92
2017-12-31T19:07:28.973Z,71.58
2017-12-31T19:09:22.548Z,71.26
2017-12-31T19:10:22.512Z,71.01
2017-12-31T19:12:15.164Z,71.20
2017-12-31T19:13:16.023Z,71.01
2017-12-31T19:15:09.702Z,71.20
2017-12-31T19:16:09.664Z,70.69
2017-12-31T19:18:03.846Z,71.07
2017-12-31T19:19:03.186Z,71.07
2017-12-31T19:20:56.761Z,71.17
2017-12-31T19:21:56.817Z,71.55
2017-12-31T19:23:49.477Z,71.55
2017-12-31T19:24:50.374Z,71.58
2017-12-31T19:26:43.861Z,71.20
2017-12-31T19:27:43.920Z,71.68
2017-12-31T19:29:37.818Z,73.77
2017-12-31T19:30:37.473Z,73.21
2017-12-31T19:32:31.040Z,74.06
2017-12-31T19:33:31.035Z,74.06
2017-12-31T19:35:22.318Z,74.16
2017-12-31T19:36:24.605Z,74.44
2017-12-31T19:38:18.152Z,74.82
2017-12-31T19:39:18.119Z,76.10
2017-12-31T19:41:10.767Z,75.05
2017-12-31T19:42:11.683Z,76.29
2017-12-31T19:44:05.277Z,75.96
2017-12-31T19:45:05.274Z,75.81
2017-12-31T19:46:57.866Z,77.44
2017-12-31T19:47:58.819Z,78.01
2017-12-31T19:49:51.539Z,78.49
2017-12-31T19:50:52.396Z,78.67
2017-12-31T19:52:44.043Z,78.30
2017-12-31T19:53:45.921Z,79.53
2017-12-31T19:55:40.133Z,79.35
2017-12-31T19:56:39.500Z,79.77
2017-12-31T19:58:33.055Z,79.28
2017-12-31T19:59:33.056Z,79.00
2017-12-31T20:01:25.686Z,80.33
2017-12-31T20:02:26.615Z,79.28
2017-12-31T20:04:20.278Z,79.19
2017-12-31T20:05:20.156Z,79.28
2017-12-31T20:07:14.320Z,79.48
2017-12-31T20:08:13.723Z,79.15
2017-12-31T20:10:07.294Z,77.44
2017-12-31T20:11:07.380Z,78.86
2017-12-31T20:12:59.991Z,78.01
2017-12-31T20:14:00.882Z,78.54
2017-12-31T20:15:53.257Z,78.16
2017-12-31T20:16:54.459Z,76.54
2017-12-31T20:18:47.080Z,75.78
2017-12-31T20:19:48.053Z,76.69
2017-12-31T20:21:41.486Z,74.98
2017-12-31T20:22:41.554Z,74.98
2017-12-31T20:24:33.436Z,75.74
2017-12-31T20:25:35.269Z,74.50
2017-12-31T20:27:28.056Z,74.21
2017-12-31T20:28:28.720Z,73.65
2017-12-31T20:30:21.170Z,73.36
2017-12-31T20:31:22.229Z,73.07
2017-12-31T20:33:15.817Z,73.26
2017-12-31T20:34:15.791Z,73.07
2017-12-31T20:36:08.468Z,74.50
2017-12-31T20:37:09.346Z,74.31
2017-12-31T20:39:02.949Z,73.03
2017-12-31T20:40:02.930Z,73.80
2017-12-31T20:41:56.238Z,73.41
2017-12-31T20:42:56.474Z,74.46
2017-12-31T20:44:47.189Z,74.46
2017-12-31T20:45:50.039Z,74.65
2017-12-31T20:47:42.745Z,73.80
2017-12-31T20:48:43.743Z,73.80
2017-12-31T20:50:37.217Z,73.99
2017-12-31T20:51:37.161Z,73.80
2017-12-31T20:53:31.631Z,73.61
2017-12-31T20:54:30.718Z,73.32
2017-12-31T20:56:23.198Z,72.81
2017-12-31T20:57:24.313Z,72.52
2017-12-31T20:59:16.994Z,72.05
2017-12-31T21:00:17.830Z,71.86
2017-12-31T21:02:10.303Z,72.05
2017-12-31T21:03:10.579Z,71.28
2017-12-31T21:05:05.018Z,70.81
2017-12-31T21:06:04.988Z,70.43
2017-12-31T21:07:57.650Z,70.14
2017-12-31T21:08:58.563Z,70.72
2017-12-31T21:10:52.175Z,70.33
2017-12-31T21:11:52.087Z,70.72
2017-12-31T21:13:42.838Z,70.24
2017-12-31T21:14:46.588Z,70.43
2017-12-31T21:16:39.252Z,71.47
2017-12-31T21:17:39.205Z,70.62
2017-12-31T21:19:30.775Z,71.28
2017-12-31T21:20:32.795Z,71.19
2017-12-31T21:22:26.385Z,70.81
2017-12-31T21:23:26.348Z,71.38
2017-12-31T21:25:18.796Z,71.00
2017-12-31T21:26:19.975Z,71.09
2017-12-31T21:28:13.450Z,71.38
2017-12-31T21:29:13.449Z,71.19
2017-12-31T21:31:06.142Z,71.09
2017-12-31T21:32:07.005Z,71.47
2017-12-31T21:34:00.576Z,71.09
2017-12-31T21:35:00.576Z,71.19
2017-12-31T21:36:53.336Z,71.57
2017-12-31T21:37:54.143Z,71.38
2017-12-31T21:39:47.729Z,71.09
2017-12-31T21:40:47.698Z,71.38
2017-12-31T21:42:40.375Z,71.67
2017-12-31T21:43:41.240Z,71.57
2017-12-31T21:45:33.963Z,72.42
2017-12-31T21:46:34.819Z,72.90
2017-12-31T21:48:28.374Z,72.05
2017-12-31T21:49:28.421Z,72.52
2017-12-31T21:51:20.838Z,72.33
2017-12-31T21:52:21.918Z,72.81
2017-12-31T21:54:12.634Z,73.76
2017-12-31T21:55:15.513Z,73.76
2017-12-31T21:57:08.129Z,74.14
2017-12-31T21:58:09.091Z,74.33
2017-12-31T22:00:02.603Z,74.04
2017-12-31T22:01:02.600Z,74.90
2017-12-31T22:02:56.825Z,75.09
2017-12-31T22:03:56.169Z,75.19
2017-12-31T22:05:49.709Z,75.28
2017-12-31T22:06:49.746Z,75.28
2017-12-31T22:08:42.407Z,74.90
2017-12-31T22:09:43.328Z,75.85
2017-12-31T22:11:34.197Z,75.76
2017-12-31T22:12:36.884Z,75.28
2017-12-31T22:14:29.526Z,74.90
2017-12-31T22:15:30.566Z,76.23
2017-12-31T22:17:24.026Z,76.04
2017-12-31T22:18:24.011Z,76.04
2017-12-31T22:20:15.373Z,76.71
2017-12-31T22:21:17.552Z,76.33
2017-12-31T22:23:11.153Z,77.28
2017-12-31T22:24:11.071Z,77.47
2017-12-31T22:26:03.718Z,77.00
2017-12-31T22:27:04.643Z,77.66
2017-12-31T22:28:55.629Z,76.81
2017-12-31T22:29:56.542Z,77.28
2017-12-31T22:31:50.834Z,77.56
2017-12-31T22:32:51.760Z,77.95
2017-12-31T22:34:45.195Z,78.46
2017-12-31T22:35:45.311Z,78.23
2017-12-31T22:37:38.031Z,78.80
2017-12-31T22:38:38.875Z,78.52
2017-12-31T22:40:32.436Z,78.61
2017-12-31T22:41:32.438Z,78.90
2017-12-31T22:43:26.631Z,78.90
2017-12-31T22:44:26.007Z,78.61
2017-12-31T22:46:19.548Z,78.14
2017-12-31T22:47:19.563Z,78.61
2017-12-31T22:49:12.235Z,78.99
2017-12-31T22:50:13.113Z,79.03
2017-12-31T22:52:05.634Z,78.80
2017-12-31T22:53:06.737Z,78.14
2017-12-31T22:55:03.581Z,78.90
2017-12-31T22:56:00.237Z,78.99
2017-12-31T22:57:53.020Z,78.42
2017-12-31T22:58:52.541Z,78.04
2017-12-31T23:00:47.367Z,78.42
2017-12-31T23:01:47.424Z,78.99
2017-12-31T23:03:41.501Z,79.09
2017-12-31T23:04:39.992Z,79.28
2017-12-31T23:06:33.418Z,79.09
2017-12-31T23:07:34.518Z,79.75
2017-12-31T23:09:26.974Z,79.85
2017-12-31T23:10:28.028Z,79.57
2017-12-31T23:12:21.586Z,80.04
2017-12-31T23:14:34.068Z,80.04
2017-12-31T23:15:35.003Z,80.52
2017-12-31T23:17:28.558Z,80.13
2017-12-31T23:18:26.886Z,79.94
2017-12-31T23:20:21.570Z,80.71
2017-12-31T23:21:19.764Z,80.95
2017-12-31T23:23:15.893Z,80.00
2017-12-31T23:24:15.668Z,80.38
2017-12-31T23:26:06.961Z,79.81
2017-12-31T23:27:09.266Z,80.00
2017-12-31T23:29:02.807Z,80.57
2017-12-31T23:30:01.250Z,79.91
2017-12-31T23:31:55.522Z,80.34
2017-12-31T23:32:56.760Z,80.63
2017-12-31T23:34:49.946Z,79.49
2017-12-31T23:35:48.289Z,79.58
2017-12-31T23:37:42.716Z,79.68
2017-12-31T23:38:41.623Z,78.72
2017-12-31T23:40:36.140Z,78.63
2017-12-31T23:42:50.431Z,79.01
2017-12-31T23:43:50.512Z,78.78
2017-12-31T23:45:43.097Z,79.06
2017-12-31T23:46:44.025Z,79.06
2017-12-31T23:48:36.699Z,78.21
2017-12-31T23:49:37.614Z,78.30
2017-12-31T23:51:30.171Z,78.40
2017-12-31T23:52:31.192Z,78.97
2017-12-31T23:54:24.693Z,78.50
2017-12-31T23:55:24.684Z,78.97
2017-12-31T23:57:18.947Z,79.16
2017-12-31T23:58:18.284Z,78.88
